Ater, Texas
Current Conditions -  °F | °C
As of 1:55 PM on Saturday 25 Oct 2014 (Local Time) from KGOP Reporting Station
Clear Clear  
Wind Chill: 86°   Ceiling: Unl
Heat Index: 86°   Visibility: 9mi
Dew Point: 61°   Wind: 6mph
Humidity: 43%   Direction: 220°SW
Pressure: 30.14"   Gusts: NA
Location:  31.392°N, 97.7452°W
Report Text: KGOP 251855Z AUTO 22005KT 9SM CLR 30/16 A3014 RMK AO2
Loading
Personal Weather Stations






























Interactive Weather Map
Tropical Storm Tracking
New forecast layout! Learn more

10-Day Weather Forecast

Advertisements
Track Severe Weather on mobile